createdAt,value
2022-08-09T00:00:00.951Z,1.50
2022-08-09T00:02:34.226Z,1.40
2022-08-09T00:06:12.218Z,1.60
2022-08-09T00:07:49.621Z,1.40
2022-08-09T00:10:21.453Z,1.60
2022-08-09T00:12:52.497Z,1.40
2022-08-09T00:15:20.191Z,1.60
2022-08-09T00:18:04.660Z,1.45
2022-08-09T00:20:36.586Z,1.52
2022-08-09T00:23:08.359Z,1.40
2022-08-09T00:25:51.609Z,1.50
2022-08-09T00:28:19.392Z,1.40
2022-08-09T00:30:49.452Z,1.58
2022-08-09T00:33:16.565Z,1.60
2022-08-09T00:35:43.829Z,1.70
2022-08-09T00:38:12.669Z,1.55
2022-08-09T00:40:39.819Z,1.50
2022-08-09T00:44:11.527Z,1.60
2022-08-09T00:46:07.070Z,1.50
2022-08-09T00:48:34.697Z,1.55
2022-08-09T00:51:11.759Z,1.50
2022-08-09T00:53:39.807Z,1.50
2022-08-09T00:56:10.052Z,1.48
2022-08-09T00:58:37.369Z,1.70
2022-08-09T01:01:04.501Z,1.65
2022-08-09T01:03:32.662Z,1.70
2022-08-09T01:06:18.340Z,1.48
2022-08-09T01:08:48.832Z,1.40
2022-08-09T01:11:16.838Z,1.55
2022-08-09T01:13:58.934Z,1.70
2022-08-09T01:16:26.848Z,1.60
2022-08-09T01:19:01.637Z,1.92
2022-08-09T01:21:44.461Z,1.75
2022-08-09T01:24:12.008Z,1.70
2022-08-09T01:26:39.236Z,1.70
2022-08-09T01:29:06.416Z,1.45
2022-08-09T01:32:30.001Z,1.60
2022-08-09T01:34:21.384Z,1.80
2022-08-09T01:36:48.789Z,1.83
2022-08-09T01:39:15.917Z,1.60
2022-08-09T01:41:59.922Z,1.65
2022-08-09T01:44:29.225Z,1.65
2022-08-09T01:46:57.717Z,1.70
2022-08-09T01:49:27.016Z,1.63
2022-08-09T01:52:07.604Z,1.50
2022-08-09T01:54:34.998Z,1.45
2022-08-09T01:57:04.039Z,1.70
2022-08-09T01:59:32.403Z,1.48
2022-08-09T02:02:01.186Z,1.55
2022-08-09T02:04:28.454Z,1.60
2022-08-09T02:08:34.910Z,1.60
2022-08-09T02:10:04.069Z,1.48
2022-08-09T02:12:32.202Z,1.60
2022-08-09T02:14:59.613Z,1.50
2022-08-09T02:17:59.170Z,1.80
2022-08-09T02:20:25.047Z,1.70
2022-08-09T02:22:53.873Z,1.77
2022-08-09T02:25:21.000Z,1.50
2022-08-09T02:28:00.470Z,1.80
2022-08-09T02:30:31.305Z,1.77
2022-08-09T02:32:58.394Z,1.95
2022-08-09T02:36:03.446Z,1.75
2022-08-09T02:38:27.872Z,1.80
2022-08-09T02:40:55.976Z,1.80
2022-08-09T02:43:23.137Z,1.70
2022-08-09T02:45:55.813Z,1.67
2022-08-09T02:48:31.190Z,1.83
2022-08-09T02:50:58.802Z,1.70
2022-08-09T02:53:28.849Z,1.60
2022-08-09T02:55:58.606Z,1.60
2022-08-09T02:58:35.469Z,1.70
2022-08-09T03:01:06.378Z,1.80
2022-08-09T03:04:13.057Z,1.65
2022-08-09T03:06:22.492Z,1.73
2022-08-09T03:08:49.565Z,1.88
2022-08-09T03:12:04.610Z,1.58
2022-08-09T03:14:03.715Z,1.60
2022-08-09T03:16:30.832Z,1.58
2022-08-09T03:18:58.036Z,1.67
2022-08-09T03:21:28.787Z,1.67
2022-08-09T03:24:05.163Z,1.77
2022-08-09T03:26:32.377Z,1.52
2022-08-09T03:28:59.599Z,1.77
2022-08-09T03:31:27.022Z,1.65
2022-08-09T03:33:56.505Z,1.70
2022-08-09T03:36:27.677Z,1.92
2022-08-09T03:38:55.159Z,1.90
2022-08-09T03:41:44.657Z,1.90
2022-08-09T03:44:12.128Z,1.90
2022-08-09T03:46:39.532Z,1.63
2022-08-09T03:49:08.767Z,1.65
2022-08-09T03:51:44.051Z,1.83
2022-08-09T03:54:29.794Z,1.70
2022-08-09T03:56:58.352Z,1.75
2022-08-09T03:59:27.515Z,1.67
2022-08-09T04:02:10.558Z,1.80
2022-08-09T04:04:38.783Z,1.73
2022-08-09T04:07:06.096Z,1.60
2022-08-09T04:09:41.664Z,1.92
2022-08-09T04:12:11.917Z,1.70
2022-08-09T04:15:01.627Z,1.73
2022-08-09T04:17:29.729Z,1.83
2022-08-09T04:19:57.455Z,1.90
2022-08-09T04:22:24.571Z,1.90
2022-08-09T04:24:55.074Z,1.80
2022-08-09T04:27:22.504Z,2.20
2022-08-09T04:29:50.487Z,1.70
2022-08-09T04:32:31.234Z,1.80
2022-08-09T04:35:01.335Z,1.90
2022-08-09T04:37:42.106Z,1.80
2022-08-09T04:40:18.983Z,1.90
2022-08-09T04:42:48.393Z,1.90
2022-08-09T04:45:16.624Z,2.10
2022-08-09T04:47:58.819Z,1.77
2022-08-09T04:50:33.674Z,2.00
2022-08-09T04:53:11.596Z,1.80
2022-08-09T04:55:43.907Z,2.10
2022-08-09T04:58:26.316Z,1.92
2022-08-09T05:01:16.221Z,1.80
2022-08-09T05:03:46.045Z,2.00
2022-08-09T05:06:22.079Z,1.90
2022-08-09T05:09:00.754Z,1.75
2022-08-09T05:11:32.105Z,1.70
2022-08-09T05:14:05.934Z,1.95
2022-08-09T05:16:33.640Z,1.85
2022-08-09T05:19:10.773Z,2.03
2022-08-09T05:21:47.276Z,2.00
2022-08-09T05:24:24.201Z,1.80
2022-08-09T05:26:51.427Z,1.80
2022-08-09T05:29:23.843Z,2.10
2022-08-09T05:31:59.112Z,2.10
2022-08-09T05:34:31.358Z,1.95
2022-08-09T05:36:59.121Z,2.00
2022-08-09T05:39:35.710Z,2.00
2022-08-09T05:42:06.552Z,2.20
2022-08-09T05:44:34.756Z,2.00
2022-08-09T05:47:05.552Z,2.05
2022-08-09T05:49:33.901Z,2.03
2022-08-09T05:52:19.948Z,1.85
2022-08-09T05:54:49.227Z,2.00
2022-08-09T05:57:17.359Z,2.00
2022-08-09T05:59:46.040Z,1.92
2022-08-09T06:02:17.070Z,1.90
2022-08-09T06:04:46.095Z,2.40
2022-08-09T06:07:21.666Z,2.03
2022-08-09T06:10:01.701Z,1.92
2022-08-09T06:12:29.614Z,1.90
2022-08-09T06:15:01.099Z,2.30
2022-08-09T06:17:39.001Z,1.88
2022-08-09T06:20:07.582Z,2.05
2022-08-09T06:22:35.382Z,2.05
2022-08-09T06:25:02.995Z,2.15
2022-08-09T06:27:42.175Z,2.00
2022-08-09T06:30:10.117Z,1.75
2022-08-09T06:32:58.926Z,2.08
2022-08-09T06:35:55.883Z,1.80
2022-08-09T06:38:13.826Z,1.90
2022-08-09T06:40:43.228Z,2.00
2022-08-09T06:43:11.471Z,2.00
2022-08-09T06:46:04.880Z,2.00
2022-08-09T06:48:30.610Z,2.03
2022-08-09T06:50:58.290Z,1.70
2022-08-09T06:53:25.355Z,1.83
2022-08-09T06:55:53.316Z,2.05
2022-08-09T07:00:46.534Z,2.10
2022-08-09T07:01:07.864Z,2.00
2022-08-09T07:03:39.643Z,1.95
2022-08-09T07:06:20.832Z,2.05
2022-08-09T07:08:49.721Z,1.95
2022-08-09T07:11:23.549Z,2.00
2022-08-09T07:14:04.114Z,1.95
2022-08-09T07:16:42.390Z,1.92
2022-08-09T07:19:18.793Z,2.00
2022-08-09T07:21:57.046Z,2.10
2022-08-09T07:24:32.836Z,1.92
2022-08-09T07:27:21.071Z,1.95
2022-08-09T07:29:56.968Z,1.80
2022-08-09T07:32:33.223Z,1.65
2022-08-09T07:35:02.735Z,1.80
2022-08-09T07:37:42.938Z,1.98
2022-08-09T07:40:12.909Z,1.85
2022-08-09T07:42:40.293Z,1.88
2022-08-09T07:45:22.692Z,1.70
2022-08-09T07:48:01.409Z,1.85
2022-08-09T07:50:34.609Z,1.60
2022-08-09T07:53:03.077Z,1.80
2022-08-09T07:55:41.351Z,1.77
2022-08-09T07:58:19.193Z,1.52
2022-08-09T08:00:56.069Z,1.80
2022-08-09T08:03:26.814Z,1.80
2022-08-09T08:05:58.280Z,2.47
2022-08-09T08:09:01.778Z,1.67
2022-08-09T08:12:10.123Z,1.80
2022-08-09T08:13:59.703Z,1.63
2022-08-09T08:16:31.277Z,1.60
2022-08-09T08:18:59.366Z,1.80
2022-08-09T08:21:26.668Z,1.50
2022-08-09T08:23:55.724Z,1.60
2022-08-09T08:26:42.165Z,1.52
2022-08-09T08:29:10.331Z,1.70
2022-08-09T08:32:02.322Z,1.80
2022-08-09T08:34:25.326Z,1.50
2022-08-09T08:36:52.750Z,1.60
2022-08-09T08:39:21.997Z,1.83
2022-08-09T08:41:51.914Z,1.30
2022-08-09T08:44:27.094Z,1.70
2022-08-09T08:46:59.534Z,1.63
2022-08-09T08:49:38.530Z,1.50
2022-08-09T08:52:48.519Z,1.40
2022-08-09T08:55:03.823Z,1.40
2022-08-09T08:57:34.971Z,1.33
2022-08-09T09:00:12.850Z,1.65
2022-08-09T09:02:52.301Z,1.42
2022-08-09T09:05:20.238Z,1.40
2022-08-09T09:08:00.355Z,1.30
2022-08-09T09:10:27.403Z,1.40
2022-08-09T09:12:54.456Z,1.48
2022-08-09T09:15:28.220Z,1.48
2022-08-09T09:17:55.923Z,1.40
2022-08-09T09:20:22.995Z,1.50
2022-08-09T09:22:52.990Z,1.40
2022-08-09T09:26:01.955Z,1.70
2022-08-09T09:28:07.820Z,1.33
2022-08-09T09:30:40.887Z,1.55
2022-08-09T09:33:15.525Z,1.65
2022-08-09T09:35:53.025Z,1.50
2022-08-09T09:38:36.544Z,1.50
2022-08-09T09:41:04.437Z,1.40
2022-08-09T09:43:41.000Z,1.60
2022-08-09T09:48:56.006Z,1.60
2022-08-09T09:51:25.971Z,1.50
2022-08-09T09:54:17.869Z,1.42
2022-08-09T09:58:00.157Z,1.50
2022-08-09T09:59:35.394Z,1.70
2022-08-09T10:02:02.760Z,1.67
2022-08-09T10:04:31.215Z,1.70
2022-08-09T10:06:58.777Z,1.45
2022-08-09T10:09:30.386Z,1.70
2022-08-09T10:12:11.475Z,1.63
2022-08-09T10:14:47.975Z,1.55
2022-08-09T10:17:50.755Z,1.60
2022-08-09T10:20:03.319Z,1.50
2022-08-09T10:22:32.673Z,1.30
2022-08-09T10:25:04.048Z,1.70
2022-08-09T10:27:45.409Z,1.60
2022-08-09T10:33:44.804Z,1.45
2022-08-09T10:36:00.852Z,1.60
2022-08-09T10:38:54.655Z,1.65
2022-08-09T10:41:15.646Z,1.58
2022-08-09T10:43:47.081Z,1.50
2022-08-09T10:46:27.242Z,1.50
2022-08-09T10:48:54.311Z,1.60
2022-08-09T10:51:21.404Z,1.50
2022-08-09T10:53:57.306Z,1.63
2022-08-09T10:56:24.447Z,1.67
2022-08-09T10:58:54.130Z,1.40
2022-08-09T11:03:15.112Z,1.50
2022-08-09T11:04:27.886Z,1.63
2022-08-09T11:06:55.363Z,1.58
2022-08-09T11:09:26.586Z,1.70
2022-08-09T11:12:06.269Z,1.48
2022-08-09T11:14:35.405Z,1.50
2022-08-09T11:17:04.872Z,1.77
2022-08-09T11:20:11.819Z,1.48
2022-08-09T11:22:24.468Z,1.60
2022-08-09T11:24:52.901Z,1.50
2022-08-09T11:28:05.379Z,1.70
2022-08-09T11:30:32.130Z,1.42
2022-08-09T11:32:54.102Z,1.60
2022-08-09T11:35:26.679Z,1.45
2022-08-09T11:38:03.202Z,1.58
2022-08-09T11:40:32.257Z,1.40
2022-08-09T11:43:01.121Z,1.60
2022-08-09T11:45:41.976Z,1.30
2022-08-09T11:48:19.365Z,1.35
2022-08-09T11:52:49.109Z,1.40
2022-08-09T11:54:00.007Z,1.60
2022-08-09T11:56:42.832Z,1.50
2022-08-09T11:59:14.270Z,1.52
2022-08-09T12:02:18.352Z,1.50
2022-08-09T12:04:37.232Z,1.50
2022-08-09T12:07:07.715Z,1.70
2022-08-09T12:09:36.164Z,1.40
2022-08-09T12:12:12.910Z,1.50
2022-08-09T12:15:07.591Z,1.40
2022-08-09T12:17:44.515Z,1.42
2022-08-09T12:20:16.794Z,1.50
2022-08-09T12:22:50.264Z,1.60
2022-08-09T12:25:17.618Z,1.40
2022-08-09T12:29:12.149Z,1.30
2022-08-09T12:30:50.965Z,1.50
2022-08-09T12:33:19.151Z,1.60
2022-08-09T12:35:50.541Z,1.48
2022-08-09T12:38:17.755Z,1.40
2022-08-09T12:41:01.318Z,1.35
2022-08-09T12:44:06.555Z,1.42
2022-08-09T12:46:15.609Z,1.58
2022-08-09T12:48:42.904Z,1.33
2022-08-09T12:51:11.579Z,1.50
2022-08-09T12:53:41.038Z,1.50
2022-08-09T12:56:39.253Z,1.23
2022-08-09T12:58:59.153Z,1.58
2022-08-09T13:01:29.640Z,1.30
2022-08-09T13:03:59.188Z,1.70
2022-08-09T13:06:34.924Z,1.70
2022-08-09T13:09:02.626Z,1.45
2022-08-09T13:11:33.280Z,1.60
2022-08-09T13:14:40.663Z,1.30
2022-08-09T13:16:49.493Z,1.42
2022-08-09T13:19:16.612Z,1.50
2022-08-09T13:22:36.525Z,1.52
2022-08-09T13:24:52.952Z,1.52
2022-08-09T13:27:19.694Z,1.50
2022-08-09T13:30:04.176Z,1.50
2022-08-09T13:32:34.142Z,1.50
2022-08-09T13:35:01.186Z,1.45
2022-08-09T13:37:52.490Z,1.38
2022-08-09T13:41:50.484Z,1.30
2022-08-09T13:43:05.142Z,1.50
2022-08-09T13:46:44.558Z,1.38
2022-08-09T13:48:19.483Z,1.55
2022-08-09T13:50:46.606Z,1.30
2022-08-09T13:53:16.629Z,1.42
2022-08-09T13:55:44.884Z,1.45
2022-08-09T13:58:15.110Z,1.48
2022-08-09T14:00:49.921Z,1.40
2022-08-09T14:04:03.541Z,1.80
2022-08-09T14:06:14.693Z,1.60
2022-08-09T14:08:46.798Z,1.50
2022-08-09T14:11:16.188Z,1.60
2022-08-09T14:14:15.128Z,1.50
2022-08-09T14:16:30.568Z,1.58
2022-08-09T14:18:58.406Z,1.40
2022-08-09T14:21:29.136Z,1.40
2022-08-09T14:23:57.610Z,1.50
2022-08-09T14:26:32.238Z,1.40
2022-08-09T14:29:00.307Z,1.50
2022-08-09T14:31:36.173Z,1.50
2022-08-09T14:34:14.475Z,1.50
2022-08-09T14:36:45.554Z,1.50
2022-08-09T14:39:15.956Z,1.50
2022-08-09T14:41:44.069Z,1.42
2022-08-09T14:44:12.091Z,1.40
2022-08-09T14:47:04.924Z,1.52
2022-08-09T14:49:28.952Z,1.35
2022-08-09T14:52:02.036Z,1.30
2022-08-09T14:54:29.764Z,1.30
2022-08-09T14:56:58.037Z,1.35
2022-08-09T14:59:27.158Z,1.30
2022-08-09T15:01:54.394Z,1.50
2022-08-09T15:04:23.533Z,1.38
2022-08-09T15:06:51.547Z,1.40
2022-08-09T15:09:30.748Z,1.55
2022-08-09T15:12:08.157Z,1.83
2022-08-09T15:14:38.191Z,1.38
2022-08-09T15:17:09.019Z,1.55
2022-08-09T15:19:36.572Z,1.40
2022-08-09T15:22:03.882Z,1.60
2022-08-09T15:24:32.751Z,1.50
2022-08-09T15:26:59.866Z,1.60
2022-08-09T15:30:56.811Z,1.60
2022-08-09T15:32:29.873Z,1.65
2022-08-09T15:35:00.236Z,1.42
2022-08-09T15:37:57.233Z,1.40
2022-08-09T15:40:25.139Z,1.35
2022-08-09T15:42:58.640Z,1.42
2022-08-09T15:45:29.153Z,1.50
2022-08-09T15:48:03.291Z,1.40
2022-08-09T15:50:39.061Z,1.65
2022-08-09T15:53:18.538Z,1.40
2022-08-09T15:56:04.548Z,1.70
2022-08-09T15:58:43.389Z,1.55
2022-08-09T16:01:10.587Z,1.48
2022-08-09T16:03:38.791Z,1.55
2022-08-09T16:06:29.351Z,1.40
2022-08-09T16:08:56.761Z,1.50
2022-08-09T16:11:30.798Z,1.38
2022-08-09T16:14:05.423Z,1.80
2022-08-09T16:16:37.252Z,1.65
2022-08-09T16:19:05.575Z,1.60
2022-08-09T16:21:35.118Z,1.60
2022-08-09T16:24:02.882Z,1.45
2022-08-09T16:26:34.689Z,1.70
2022-08-09T16:29:10.560Z,1.58
2022-08-09T16:32:19.978Z,1.60
2022-08-09T16:34:26.308Z,1.70
2022-08-09T16:36:55.815Z,1.58
2022-08-09T16:39:25.901Z,1.50
2022-08-09T16:42:02.998Z,1.60
2022-08-09T16:44:32.081Z,1.40
2022-08-09T16:47:03.800Z,1.90
2022-08-09T16:50:31.320Z,1.45
2022-08-09T16:52:19.160Z,1.50
2022-08-09T16:54:46.299Z,1.60
2022-08-09T16:57:16.559Z,1.50
2022-08-09T16:59:44.138Z,1.67
2022-08-09T17:02:17.973Z,1.48
2022-08-09T17:04:50.426Z,1.60
2022-08-09T17:08:45.641Z,1.50
2022-08-09T17:10:06.824Z,1.38
2022-08-09T17:12:36.180Z,1.70
2022-08-09T17:15:30.498Z,1.60
2022-08-09T17:17:51.536Z,1.40
2022-08-09T17:20:36.997Z,1.60
2022-08-09T17:23:06.163Z,1.60
2022-08-09T17:25:37.639Z,1.60
2022-08-09T17:28:05.507Z,1.70
2022-08-09T17:30:32.603Z,1.58
2022-08-09T17:33:01.350Z,1.42
2022-08-09T17:35:32.868Z,1.70
2022-08-09T17:38:02.453Z,1.42
2022-08-09T17:40:41.801Z,1.60
2022-08-09T17:43:34.479Z,1.75
2022-08-09T17:46:04.317Z,1.63
2022-08-09T17:48:33.494Z,1.50
2022-08-09T17:51:09.432Z,1.40
2022-08-09T17:53:42.817Z,1.67
2022-08-09T17:56:10.919Z,1.50
2022-08-09T17:58:37.954Z,1.70
2022-08-09T18:01:10.998Z,1.52
2022-08-09T18:03:49.470Z,1.55
2022-08-09T18:06:31.088Z,1.70
2022-08-09T18:08:59.597Z,1.50
2022-08-09T18:11:26.767Z,1.45
2022-08-09T18:14:00.740Z,1.60
2022-08-09T18:16:30.922Z,1.38
2022-08-09T18:18:58.063Z,1.50
2022-08-09T18:21:31.852Z,1.70
2022-08-09T18:24:14.084Z,1.60
2022-08-09T18:26:46.931Z,1.67
2022-08-09T18:30:36.115Z,1.60
2022-08-09T18:32:03.517Z,1.73
2022-08-09T18:34:35.186Z,1.80
2022-08-09T18:37:02.564Z,1.70
2022-08-09T18:39:32.082Z,1.48
2022-08-09T18:42:01.073Z,1.70
2022-08-09T18:44:28.306Z,1.70
2022-08-09T18:47:07.365Z,1.83
2022-08-09T18:49:41.577Z,1.52
2022-08-09T18:52:11.793Z,1.67
2022-08-09T18:54:39.106Z,1.60
2022-08-09T18:57:09.290Z,1.70
2022-08-09T18:59:48.504Z,1.55
2022-08-09T19:02:16.714Z,1.58
2022-08-09T19:04:47.796Z,1.60
2022-08-09T19:07:31.467Z,1.38
2022-08-09T19:10:14.096Z,1.77
2022-08-09T19:12:45.607Z,1.50
2022-08-09T19:15:22.853Z,1.60
2022-08-09T19:17:54.612Z,1.63
2022-08-09T19:20:23.710Z,1.50
2022-08-09T19:22:54.682Z,1.60
2022-08-09T19:25:42.590Z,1.80
2022-08-09T19:28:09.199Z,1.67
2022-08-09T19:30:40.619Z,1.60
2022-08-09T19:33:19.454Z,1.60
2022-08-09T19:35:57.459Z,1.70
2022-08-09T19:38:25.775Z,1.50
2022-08-09T19:40:53.924Z,1.60
2022-08-09T19:44:00.275Z,1.70
2022-08-09T19:46:14.433Z,1.60
2022-08-09T19:49:00.363Z,1.60
2022-08-09T19:51:30.931Z,1.70
2022-08-09T19:53:58.364Z,2.10
2022-08-09T19:56:28.993Z,1.75
2022-08-09T19:59:39.439Z,1.85
2022-08-09T20:01:52.384Z,1.88
2022-08-09T20:04:37.366Z,1.90
2022-08-09T20:07:21.035Z,1.70
2022-08-09T20:09:49.610Z,2.10
2022-08-09T20:12:30.002Z,2.00
2022-08-09T20:15:04.889Z,2.00
2022-08-09T20:17:54.531Z,2.10
2022-08-09T20:20:22.221Z,1.90
2022-08-09T20:22:51.800Z,1.90
2022-08-09T20:25:23.601Z,2.10
2022-08-09T20:27:51.102Z,2.00
2022-08-09T20:30:21.679Z,2.00
2022-08-09T20:32:52.177Z,2.20
2022-08-09T20:35:19.924Z,1.92
2022-08-09T20:38:22.316Z,2.00
2022-08-09T20:40:34.148Z,2.10
2022-08-09T20:43:17.856Z,2.20
2022-08-09T20:46:01.309Z,1.98
2022-08-09T20:48:35.427Z,2.17
2022-08-09T20:51:03.156Z,2.20
2022-08-09T20:53:36.846Z,2.00
2022-08-09T20:56:05.766Z,2.10
2022-08-09T20:58:33.422Z,2.10
2022-08-09T21:01:14.166Z,2.38
2022-08-09T21:05:49.360Z,2.10
2022-08-09T21:06:35.048Z,2.15
2022-08-09T21:09:02.891Z,2.30
2022-08-09T21:14:17.636Z,2.38
2022-08-09T21:16:45.634Z,2.30
2022-08-09T21:20:17.249Z,2.30
2022-08-09T21:22:00.187Z,2.40
2022-08-09T21:24:32.756Z,2.35
2022-08-09T21:27:10.380Z,2.20
2022-08-09T21:29:48.706Z,2.38
2022-08-09T21:32:18.748Z,2.28
2022-08-09T21:34:49.309Z,2.10
2022-08-09T21:37:18.524Z,2.10
2022-08-09T21:39:49.641Z,2.40
2022-08-09T21:42:16.982Z,2.35
2022-08-09T21:44:44.413Z,2.30
2022-08-09T21:47:11.666Z,2.38
2022-08-09T21:49:45.152Z,2.40
2022-08-09T21:52:16.459Z,2.20
2022-08-09T21:54:46.199Z,2.28
2022-08-09T21:57:37.762Z,2.22
2022-08-09T22:00:03.549Z,2.30
2022-08-09T22:02:36.192Z,2.25
2022-08-09T22:05:17.122Z,2.40
2022-08-09T22:07:51.861Z,2.30
2022-08-09T22:10:22.798Z,2.65
2022-08-09T22:12:50.946Z,2.30
2022-08-09T22:15:20.755Z,2.15
2022-08-09T22:17:50.626Z,2.25
2022-08-09T22:20:21.786Z,2.28
2022-08-09T22:22:54.498Z,2.22
2022-08-09T22:26:07.517Z,2.10
2022-08-09T22:28:08.661Z,2.20
2022-08-09T22:30:36.626Z,2.55
2022-08-09T22:33:03.858Z,2.30
2022-08-09T22:36:02.718Z,2.50
2022-08-09T22:38:23.819Z,2.20
2022-08-09T22:40:57.446Z,2.40
2022-08-09T22:44:02.605Z,2.30
2022-08-09T22:48:14.261Z,2.30
2022-08-09T22:49:01.897Z,2.25
2022-08-09T22:51:38.183Z,2.47
2022-08-09T22:54:05.515Z,2.33
2022-08-09T22:56:35.369Z,2.30
2022-08-09T22:59:05.758Z,2.60
2022-08-09T23:01:50.489Z,2.30
2022-08-09T23:04:17.603Z,2.30
2022-08-09T23:07:03.377Z,2.40
2022-08-09T23:09:38.450Z,2.30
2022-08-09T23:12:05.510Z,2.20
2022-08-09T23:14:37.622Z,2.45
2022-08-09T23:17:09.547Z,2.22
2022-08-09T23:20:02.500Z,2.13
2022-08-09T23:22:23.658Z,2.60
2022-08-09T23:24:50.698Z,2.33
2022-08-09T23:27:17.730Z,2.17
2022-08-09T23:29:44.843Z,2.30
2022-08-09T23:32:11.893Z,2.42
2022-08-09T23:34:38.948Z,2.53
2022-08-09T23:37:06.024Z,2.28
2022-08-09T23:39:33.132Z,1.98
2022-08-09T23:42:00.214Z,2.50
2022-08-09T23:44:27.264Z,2.13
2022-08-09T23:46:57.364Z,2.20
2022-08-09T23:49:25.127Z,2.15
2022-08-09T23:51:52.325Z,2.30
2022-08-09T23:54:19.753Z,2.20
2022-08-09T23:56:54.203Z,2.53
2022-08-09T23:59:22.491Z,2.42
